Time;durP1;ratioP1;P1;durP2;ratioP2;P2;SDS_P1;SDS_P2;PMS_P1;PMS_P2;Temp;Humidity;BMP_temperature;BMP_pressure;BME280_temperature;BME280_humidity;BME280_pressure;Samples;Min_cycle;Max_cycle;Signal;HPM_P1;HPM_P2
2022/09/08 00:00:33;;;;;;;7.32;4.47;;;;;;;18.60;89.59;100170.81;5038106;28;20042;-79
2022/09/08 00:03:02;;;;;;;8.77;4.68;;;;;;;18.48;90.09;100173.34;5036669;28;20128;-78
2022/09/08 00:05:30;;;;;;;7.57;4.72;;;;;;;18.47;90.29;100162.97;5034940;28;20053;-77
2022/09/08 00:07:59;;;;;;;10.35;4.65;;;;;;;18.41;90.42;100155.91;5035480;28;20049;-77
2022/09/08 00:10:26;;;;;;;6.28;4.63;;;;;;;18.35;91.08;100156.78;5034962;28;20045;-77
2022/09/08 00:12:53;;;;;;;8.10;5.10;;;;;;;18.34;91.52;100148.03;5035313;28;20455;-77
2022/09/08 00:15:22;;;;;;;11.20;4.88;;;;;;;18.30;91.72;100138.09;5035482;28;20144;-77
2022/09/08 00:17:50;;;;;;;12.10;4.95;;;;;;;18.27;91.80;100141.19;5035204;28;20054;-78
2022/09/08 00:20:17;;;;;;;9.73;4.97;;;;;;;18.18;92.13;100136.16;5036655;28;20084;-80
2022/09/08 00:22:44;;;;;;;8.75;5.60;;;;;;;18.18;92.38;100141.44;5034781;28;20423;-77
2022/09/08 00:25:10;;;;;;;7.60;5.85;;;;;;;18.12;92.45;100131.72;5034586;28;20060;-78
2022/09/08 00:27:37;;;;;;;9.52;6.78;;;;;;;18.15;92.16;100136.59;5034687;28;20076;-77
2022/09/08 00:30:04;;;;;;;9.20;6.50;;;;;;;18.14;92.37;100121.72;5034904;28;20045;-78
2022/09/08 00:32:32;;;;;;;9.10;7.20;;;;;;;18.18;92.15;100116.81;5034920;28;20500;-77
2022/09/08 00:35:00;;;;;;;9.43;6.63;;;;;;;18.17;91.66;100116.00;5034879;28;20108;-77
2022/09/08 00:37:30;;;;;;;10.55;6.88;;;;;;;18.16;91.65;100114.38;5034352;28;20055;-77
2022/09/08 00:39:56;;;;;;;10.95;6.85;;;;;;;18.16;91.64;100101.13;5033315;28;20419;-78
2022/09/08 00:42:23;;;;;;;11.57;7.20;;;;;;;18.15;91.75;100114.59;5034246;28;20516;-78
2022/09/08 00:44:50;;;;;;;18.98;7.80;;;;;;;18.16;91.99;100114.38;5034160;28;20084;-77
2022/09/08 00:47:22;;;;;;;11.80;7.18;;;;;;;18.17;91.49;100102.75;5033600;28;20051;-77
2022/09/08 00:49:56;;;;;;;10.25;7.30;;;;;;;18.18;91.62;100111.50;5033437;28;20049;-76
2022/09/08 00:52:24;;;;;;;10.35;7.78;;;;;;;18.17;91.11;100109.88;5033526;28;20080;-77
2022/09/08 00:54:51;;;;;;;9.60;7.30;;;;;;;18.20;91.35;100096.22;5032996;28;20059;-77
2022/09/08 00:57:17;;;;;;;12.18;7.80;;;;;;;18.17;91.30;100091.34;5033981;28;20132;-77
2022/09/08 00:59:46;;;;;;;17.20;7.40;;;;;;;18.18;91.13;100085.84;5033125;28;20500;-77
2022/09/08 01:02:22;;;;;;;9.82;6.88;;;;;;;18.17;91.07;100086.88;5033473;28;20053;-78
2022/09/08 01:04:52;;;;;;;10.20;6.85;;;;;;;18.13;91.30;100075.09;5034215;28;20053;-77
2022/09/08 01:13:12;;;;;;;;;;;;;;;18.16;92.22;100077.31;5034912;28;20052;-78
2022/09/08 01:15:39;;;;;;;7.88;6.50;;;;;;;18.20;92.28;100075.03;5034347;28;19932;-79
2022/09/08 01:18:06;;;;;;;9.35;6.22;;;;;;;18.26;92.04;100083.94;5033612;28;20487;-78
2022/09/08 01:20:40;;;;;;;9.50;6.55;;;;;;;18.24;91.55;100076.22;5034763;28;20046;-78
2022/09/08 01:23:39;;;;;;;7.57;6.00;;;;;;;18.23;91.72;100080.69;5056143;22;20083;-83
2022/09/08 01:26:40;;;;;;;11.68;6.32;;;;;;;18.27;91.81;100089.03;5033200;28;20461;-82
2022/09/08 01:29:10;;;;;;;9.93;6.57;;;;;;;18.19;92.93;100076.06;5039960;28;20164;-83
2022/09/08 01:34:28;;;;;;;8.82;6.97;;;;;;;18.30;93.12;100095.72;5038412;28;20511;-82
2022/09/08 01:37:06;;;;;;;12.35;7.57;;;;;;;18.22;91.79;100080.91;5038818;28;20507;-83
2022/09/08 01:39:45;;;;;;;11.02;7.60;;;;;;;18.36;93.86;100097.50;5038989;28;20061;-82
2022/09/08 01:42:12;;;;;;;8.90;6.75;;;;;;;18.33;94.91;100093.44;5039061;28;20053;-83
2022/09/08 01:44:52;;;;;;;10.68;7.63;;;;;;;18.21;94.88;100089.88;5039368;28;20065;-81
2022/09/08 01:47:22;;;;;;;12.07;8.02;;;;;;;18.16;95.16;100082.59;5039458;28;20490;-82
2022/09/08 01:49:49;;;;;;;13.13;7.88;;;;;;;18.21;96.68;100093.34;5038433;28;20088;-84
2022/09/08 01:52:15;;;;;;;10.00;7.78;;;;;;;18.19;96.78;100095.41;5038864;28;20054;-81
2022/09/08 01:54:46;;;;;;;9.63;8.30;;;;;;;18.10;97.28;100087.97;5039024;28;20049;-83
2022/09/08 01:57:13;;;;;;;12.02;8.32;;;;;;;18.05;97.69;100087.78;5038645;28;20401;-80
2022/09/08 01:59:40;;;;;;;12.63;8.65;;;;;;;18.05;98.15;100099.19;5038021;28;20057;-85
2022/09/08 02:02:11;;;;;;;14.68;9.27;;;;;;;17.92;97.88;100090.59;5038586;28;20064;-81
2022/09/08 02:04:40;;;;;;;13.20;8.68;;;;;;;17.89;98.25;100099.75;5038253;28;20084;-81
2022/09/08 02:07:09;;;;;;;11.85;8.52;;;;;;;17.94;100.00;100097.28;5038530;28;20126;-80
2022/09/08 02:09:37;;;;;;;15.00;8.38;;;;;;;18.06;99.72;100122.00;5037408;28;20699;-81
2022/09/08 02:12:07;;;;;;;8.93;7.95;;;;;;;17.90;100.00;100096.91;5038500;28;20057;-82
2022/09/08 02:14:33;;;;;;;13.68;8.82;;;;;;;17.84;100.00;100099.59;5038690;28;20396;-83
2022/09/08 02:17:03;;;;;;;12.48;8.60;;;;;;;17.88;100.00;100112.19;5037832;28;20396;-80
2022/09/08 02:19:34;;;;;;;12.35;8.32;;;;;;;17.79;100.00;100104.72;5037056;28;20132;-81
2022/09/08 02:22:01;;;;;;;13.52;8.10;;;;;;;17.82;100.00;100109.59;5036584;28;20483;-83
2022/09/08 02:24:28;;;;;;;12.75;8.52;;;;;;;17.76;100.00;100100.69;5036659;28;20045;-81
2022/09/08 02:26:58;;;;;;;10.77;8.20;;;;;;;17.82;100.00;100107.75;5037623;28;20049;-83
2022/09/08 02:29:27;;;;;;;13.63;9.32;;;;;;;17.68;100.00;100102.78;5037874;28;20577;-82
2022/09/08 02:31:54;;;;;;;12.85;9.63;;;;;;;17.67;100.00;100112.53;5038962;28;20045;-84
2022/09/08 02:34:20;;;;;;;13.32;9.73;;;;;;;17.72;100.00;100122.47;5038480;28;20122;-83
2022/09/08 02:36:49;;;;;;;13.23;9.48;;;;;;;17.59;100.00;100116.22;5037038;28;20144;-81
2022/09/08 02:39:17;;;;;;;11.63;8.40;;;;;;;17.70;100.00;100130.63;5037732;28;20076;-82
2022/09/08 02:41:44;;;;;;;11.32;7.78;;;;;;;17.59;100.00;100118.88;5037806;28;20080;-83
2022/09/08 02:44:12;;;;;;;12.25;7.30;;;;;;;17.72;100.00;100149.75;5037257;28;20494;-83
2022/09/08 02:46:39;;;;;;;9.70;6.90;;;;;;;17.64;100.00;100142.03;5037123;28;20045;-83
2022/09/08 02:49:05;;;;;;;10.18;6.15;;;;;;;17.59;100.00;100141.88;5036865;28;20049;-83
2022/09/08 02:51:33;;;;;;;9.20;6.07;;;;;;;17.61;100.00;100144.31;5037602;28;20132;-84
2022/09/08 02:54:01;;;;;;;7.45;5.28;;;;;;;17.59;100.00;100139.22;5038110;28;20081;-83
2022/09/08 02:56:27;;;;;;;10.45;5.00;;;;;;;17.52;100.00;100143.75;5039564;28;20113;-83
2022/09/08 02:58:56;;;;;;;8.20;5.18;;;;;;;17.51;100.00;100142.94;5040128;28;20081;-83
2022/09/08 03:01:23;;;;;;;6.82;4.90;;;;;;;17.40;100.00;100138.34;5042255;28;20105;-81
2022/09/08 03:03:50;;;;;;;7.10;5.10;;;;;;;17.37;100.00;100138.75;5042695;28;20045;-84
2022/09/08 03:06:17;;;;;;;10.10;5.05;;;;;;;17.24;100.00;100139.63;5042283;28;20085;-83
2022/09/08 03:08:45;;;;;;;6.88;5.05;;;;;;;17.27;100.00;100137.59;5041872;28;20060;-82
2022/09/08 03:11:13;;;;;;;8.80;5.68;;;;;;;17.29;100.00;100141.66;5042424;28;20128;-82
2022/09/08 03:13:40;;;;;;;8.75;5.43;;;;;;;17.29;100.00;100141.66;5039838;28;20468;-83
2022/09/08 03:16:07;;;;;;;12.73;5.68;;;;;;;17.18;100.00;100131.72;5039695;28;20077;-84
2022/09/08 03:18:34;;;;;;;10.68;5.28;;;;;;;17.24;100.00;100128.25;5037858;28;20130;-81
2022/09/08 03:21:03;;;;;;;8.68;5.22;;;;;;;17.17;100.00;100124.81;5040167;28;20053;-80
2022/09/08 03:23:31;;;;;;;9.80;5.47;;;;;;;17.20;100.00;100129.69;5040687;28;20140;-82
2022/09/08 03:26:02;;;;;;;7.53;5.50;;;;;;;17.14;100.00;100135.81;5039849;28;20146;-82
2022/09/08 03:28:30;;;;;;;8.90;5.07;;;;;;;17.18;100.00;100129.09;5039167;28;20081;-84
2022/09/08 03:30:57;;;;;;;13.38;6.10;;;;;;;17.17;100.00;100127.47;5041090;28;20372;-83
2022/09/08 03:33:23;;;;;;;8.73;6.00;;;;;;;17.16;100.00;100125.84;5038515;28;20113;-81
2022/09/08 03:35:50;;;;;;;11.27;6.38;;;;;;;17.11;100.00;100115.09;5036671;28;20109;-83
2022/09/08 03:38:17;;;;;;;12.07;7.28;;;;;;;17.12;100.00;100114.06;5037459;28;20069;-82
2022/09/08 03:40:50;;;;;;;10.80;6.72;;;;;;;17.16;100.00;100117.91;5039136;28;20105;-82
2022/09/08 03:43:18;;;;;;;13.20;7.40;;;;;;;17.17;100.00;100115.06;5038461;28;20529;-83
2022/09/08 03:45:52;;;;;;;12.18;7.20;;;;;;;16.95;100.00;100097.91;5037443;28;20412;-83
2022/09/08 03:48:19;;;;;;;14.85;7.38;;;;;;;17.03;100.00;100113.50;5036507;28;20050;-83
2022/09/08 03:50:45;;;;;;;12.63;7.43;;;;;;;16.95;100.00;100097.91;5036487;28;20091;-82
2022/09/08 03:53:15;;;;;;;16.05;8.35;;;;;;;17.05;100.00;100114.09;5037962;28;20151;-84
2022/09/08 03:55:42;;;;;;;11.65;8.70;;;;;;;17.07;100.00;100112.06;5038737;28;20056;-82
2022/09/08 03:58:09;;;;;;;11.15;8.68;;;;;;;17.08;100.00;100115.50;5038287;28;20141;-84
2022/09/08 04:00:38;;;;;;;15.77;8.90;;;;;;;17.05;100.00;100113.28;5038963;28;20140;-82
2022/09/08 04:03:09;;;;;;;15.02;9.10;;;;;;;17.05;100.00;100114.09;5037826;28;20049;-82
2022/09/08 04:05:38;;;;;;;14.70;8.95;;;;;;;17.11;100.00;100120.38;5039009;28;20073;-83
2022/09/08 04:08:04;;;;;;;13.13;8.90;;;;;;;17.07;100.00;100119.19;5039044;28;20133;-81
2022/09/08 04:10:31;;;;;;;13.70;9.23;;;;;;;17.13;100.00;100131.56;5046498;28;20060;-81
2022/09/08 04:12:58;;;;;;;11.45;9.30;;;;;;;17.13;100.00;100127.06;5047919;28;20065;-85
2022/09/08 04:15:25;;;;;;;12.65;9.07;;;;;;;17.14;100.00;100125.25;5039180;28;20137;-84
2022/09/08 04:17:53;;;;;;;14.13;9.80;;;;;;;17.06;100.00;100112.25;5039496;28;20065;-85
2022/09/08 04:20:21;;;;;;;16.15;9.70;;;;;;;17.11;100.00;100118.53;5039426;28;20478;-84
2022/09/08 04:22:48;;;;;;;15.52;10.48;;;;;;;17.13;100.00;100129.72;5040007;28;20136;-85
2022/09/08 04:25:15;;;;;;;16.85;9.68;;;;;;;17.09;100.00;100120.59;5039700;28;20088;-84
2022/09/08 04:27:42;;;;;;;13.13;8.88;;;;;;;17.05;100.00;100123.84;5038668;28;20056;-83
2022/09/08 04:30:10;;;;;;;10.77;8.13;;;;;;;17.06;100.00;100120.19;5039765;28;20056;-83
2022/09/08 04:32:38;;;;;;;11.27;8.60;;;;;;;16.93;100.00;100105.22;5041113;28;20054;-83
2022/09/08 04:35:06;;;;;;;13.43;8.32;;;;;;;17.01;100.00;100104.19;5040970;28;20049;-83
2022/09/08 04:37:38;;;;;;;14.57;8.73;;;;;;;17.04;100.00;100109.03;5042207;28;20084;-82
2022/09/08 04:40:06;;;;;;;12.27;8.15;;;;;;;17.07;100.00;100111.25;5042274;28;20055;-84
2022/09/08 04:42:36;;;;;;;13.65;8.80;;;;;;;17.00;100.00;100105.22;5041452;28;20484;-84
2022/09/08 04:45:03;;;;;;;13.10;8.00;;;;;;;16.96;100.00;100109.28;5040271;28;20053;-81
2022/09/08 04:47:31;;;;;;;12.93;8.73;;;;;;;16.97;100.00;100108.25;5039458;28;20045;-84
2022/09/08 04:50:01;;;;;;;12.70;8.20;;;;;;;17.03;100.00;100107.41;5039782;28;20053;-83
2022/09/08 04:52:27;;;;;;;12.73;8.32;;;;;;;17.01;100.00;100112.13;5041201;28;20128;-85
2022/09/08 04:54:55;;;;;;;12.57;8.98;;;;;;;17.06;100.00;100117.56;5044028;28;20065;-82
2022/09/08 04:57:30;;;;;;;12.02;9.07;;;;;;;17.02;100.00;100113.72;5038658;28;20049;-83
2022/09/08 05:11:04;;;;;;;15.80;11.20;;;;;;;16.98;100.00;100112.53;4139120;26;20054;-81
2022/09/08 05:13:31;;;;;;;14.32;10.40;;;;;;;17.04;100.00;100130.16;5035908;28;20030;-82
2022/09/08 05:16:02;;;;;;;15.10;10.55;;;;;;;17.04;100.00;100132.81;5037690;28;20050;-82
2022/09/08 05:18:29;;;;;;;15.90;11.10;;;;;;;17.01;100.00;100128.78;5037178;28;20054;-81
2022/09/08 05:20:56;;;;;;;16.15;11.63;;;;;;;17.03;100.00;100137.28;5037956;28;20057;-82
2022/09/08 05:23:23;;;;;;;15.30;11.60;;;;;;;17.04;100.00;100140.75;5043493;28;20072;-82
2022/09/08 05:25:56;;;;;;;12.82;10.90;;;;;;;17.02;100.00;100130.38;5056770;28;20061;-82
2022/09/08 05:28:25;;;;;;;15.35;10.30;;;;;;;17.05;100.00;100134.44;5049293;28;20053;-83
2022/09/08 05:30:52;;;;;;;13.82;9.95;;;;;;;17.01;100.00;100133.25;5048901;28;20053;-83
2022/09/08 05:33:19;;;;;;;14.82;10.00;;;;;;;16.98;100.00;100128.38;5048998;28;20117;-84
2022/09/08 05:35:45;;;;;;;15.98;10.32;;;;;;;17.03;100.00;100142.56;5045931;28;20050;-83
2022/09/08 05:38:14;;;;;;;14.25;9.45;;;;;;;17.05;100.00;100139.72;5046159;28;20128;-82
2022/09/08 05:40:40;;;;;;;14.18;9.40;;;;;;;17.06;100.00;100146.63;5046965;28;20080;-83
2022/09/08 05:43:07;;;;;;;12.63;8.70;;;;;;;17.00;100.00;100140.38;5047492;28;20076;-83
2022/09/08 05:45:36;;;;;;;13.27;8.30;;;;;;;17.02;100.00;100142.78;5046700;28;20084;-85
2022/09/08 05:48:08;;;;;;;10.50;7.35;;;;;;;17.01;100.00;100134.06;5047051;28;20055;-82
2022/09/08 05:50:35;;;;;;;11.45;8.30;;;;;;;17.03;100.00;100136.47;5047890;28;20254;-84
2022/09/08 05:53:02;;;;;;;13.18;8.20;;;;;;;17.04;100.00;100140.75;5048352;28;20073;-83
2022/09/08 05:55:29;;;;;;;12.02;8.45;;;;;;;17.04;100.00;100143.38;5046459;28;20538;-83
2022/09/08 05:57:56;;;;;;;12.15;8.45;;;;;;;17.03;100.00;100134.63;5046266;28;20531;-82
2022/09/08 06:00:23;;;;;;;10.40;8.30;;;;;;;17.02;100.00;100130.38;5047614;28;20056;-81
2022/09/08 06:02:52;;;;;;;11.05;8.07;;;;;;;16.97;100.00;100137.34;5049229;28;20052;-82
2022/09/08 06:05:20;;;;;;;10.48;8.50;;;;;;;16.99;100.00;100145.88;5048564;28;20397;-83
2022/09/08 06:07:47;;;;;;;11.20;6.93;;;;;;;16.86;100.00;100152.81;5047684;28;20052;-83
2022/09/08 06:10:14;;;;;;;14.02;7.45;;;;;;;16.76;100.00;100147.16;5047458;28;20068;-82
2022/09/08 06:12:41;;;;;;;15.38;7.20;;;;;;;16.77;100.00;100155.91;5047033;28;20069;-83
2022/09/08 06:15:11;;;;;;;13.88;6.30;;;;;;;16.67;100.00;100144.94;5047461;28;20156;-83
2022/09/08 06:17:38;;;;;;;13.93;6.43;;;;;;;16.60;100.00;100140.44;5045132;28;20112;-81
2022/09/08 06:20:09;;;;;;;14.88;5.97;;;;;;;16.67;100.00;100142.31;5043965;28;20114;-82
2022/09/08 06:22:36;;;;;;;14.00;5.97;;;;;;;16.66;100.00;100146.78;5042366;28;20060;-81
2022/09/08 06:25:04;;;;;;;12.68;5.78;;;;;;;16.70;100.00;100155.91;5042900;28;20073;-82
2022/09/08 06:27:43;;;;;;;14.00;6.22;;;;;;;16.67;100.00;100164.25;5045386;28;20057;-81
2022/09/08 06:30:11;;;;;;;15.70;6.57;;;;;;;16.66;100.00;100156.53;5044785;28;20114;-80
2022/09/08 06:32:45;;;;;;;16.63;6.25;;;;;;;16.68;100.00;100172.97;5042302;28;20045;-81
2022/09/08 06:35:23;;;;;;;15.38;6.75;;;;;;;16.69;100.00;100162.22;5044846;28;20045;-80
2022/09/08 06:37:53;;;;;;;14.95;6.95;;;;;;;16.74;100.00;100153.66;5044051;28;20081;-80
2022/09/08 06:40:26;;;;;;;15.35;6.10;;;;;;;16.73;100.00;100155.50;5045549;28;20077;-82
2022/09/08 06:42:59;;;;;;;14.43;6.20;;;;;;;16.58;100.00;100158.34;5044107;28;20087;-80
2022/09/08 06:45:29;;;;;;;13.40;6.50;;;;;;;16.63;100.00;100155.06;5043772;28;20057;-82
2022/09/08 06:48:24;;;;;;;11.85;6.50;;;;;;;16.67;100.00;100166.88;5043021;28;20050;-80
2022/09/08 06:51:03;;;;;;;13.25;6.70;;;;;;;16.62;100.00;100156.09;5046450;28;20105;-82
2022/09/08 06:53:35;;;;;;;12.48;6.57;;;;;;;16.64;100.00;100169.94;5044615;28;20124;-82
2022/09/08 06:56:12;;;;;;;9.02;6.60;;;;;;;16.55;100.00;100177.22;5046106;28;20064;-83
2022/09/08 06:58:41;;;;;;;11.73;6.00;;;;;;;16.69;100.00;100171.97;5045312;28;20085;-84
2022/09/08 07:01:17;;;;;;;10.75;6.05;;;;;;;16.71;100.00;100165.47;5046286;28;20142;-81
2022/09/08 07:04:01;;;;;;;13.20;8.60;;;;;;;16.76;100.00;100172.75;5042767;28;20084;-82
2022/09/08 07:06:36;;;;;;;12.90;6.50;;;;;;;16.72;100.00;100167.06;5039752;28;20129;-80
2022/09/08 07:09:11;;;;;;;10.43;6.25;;;;;;;16.80;100.00;100171.34;5041766;28;20053;-82
2022/09/08 07:11:47;;;;;;;11.30;6.55;;;;;;;16.83;100.00;100177.00;5040947;28;20061;-81
2022/09/08 07:14:38;;;;;;;13.10;6.63;;;;;;;16.89;100.00;100184.13;5035554;28;20045;-81
2022/09/08 07:17:10;;;;;;;13.90;6.82;;;;;;;16.75;100.00;100192.28;5020414;28;20105;-81
2022/09/08 07:19:48;;;;;;;9.45;5.53;;;;;;;16.62;100.00;100187.78;5020365;28;20080;-81
2022/09/08 07:24:51;;;;;;;9.00;4.95;;;;;;;16.34;100.00;100197.78;5004251;28;20080;-79
2022/09/08 07:27:18;;;;;;;7.63;4.60;;;;;;;16.31;100.00;100200.84;5002852;28;20429;-79
2022/09/08 07:29:48;;;;;;;9.43;4.22;;;;;;;16.22;100.00;100197.59;5002387;28;20042;-77
2022/09/08 07:32:20;;;;;;;7.03;3.72;;;;;;;16.10;100.00;100199.19;4994391;28;20132;-78
2022/09/08 07:34:50;;;;;;;5.80;3.50;;;;;;;16.08;100.00;100206.50;5008887;28;20161;-78
2022/09/08 07:37:24;;;;;;;6.68;3.40;;;;;;;16.19;100.00;100209.34;4992171;28;20050;-78
2022/09/08 07:39:59;;;;;;;6.35;3.95;;;;;;;16.33;100.00;100212.81;4991778;28;20101;-77
2022/09/08 07:42:26;;;;;;;6.80;3.25;;;;;;;16.43;100.00;100199.22;4992659;28;20051;-78
2022/09/08 07:44:57;;;;;;;5.75;3.45;;;;;;;16.56;100.00;100205.28;4991343;28;20070;-77
2022/09/08 07:47:57;;;;;;;6.35;3.72;;;;;;;16.56;100.00;100204.47;5003591;28;20050;-77
2022/09/08 07:50:53;;;;;;;5.20;3.60;;;;;;;16.66;100.00;100194.31;5008859;28;20139;-77
2022/09/08 07:53:29;;;;;;;5.35;3.97;;;;;;;16.73;100.00;100202.25;4991791;28;20046;-78
2022/09/08 07:56:04;;;;;;;4.53;3.35;;;;;;;16.87;100.00;100207.28;4992478;28;20438;-78
2022/09/08 07:58:40;;;;;;;4.28;3.40;;;;;;;17.09;100.00;100204.38;4991477;28;20152;-78
2022/09/08 08:01:17;;;;;;;5.00;3.13;;;;;;;17.10;100.00;100212.09;4993050;28;20106;-78
2022/09/08 08:03:56;;;;;;;4.50;3.92;;;;;;;17.29;100.00;100206.94;4995193;28;20046;-78
2022/09/08 08:06:35;;;;;;;4.35;3.33;;;;;;;17.41;100.00;100214.03;5014726;28;20438;-78
2022/09/08 08:09:16;;;;;;;3.90;3.50;;;;;;;17.39;100.00;100207.31;5008786;28;20129;-78
2022/09/08 08:11:54;;;;;;;4.05;2.92;;;;;;;17.82;100.00;100208.31;4996784;28;20124;-78
2022/09/08 08:14:30;;;;;;;3.47;3.03;;;;;;;18.24;100.00;100205.97;4995929;28;20493;-78
2022/09/08 08:17:11;;;;;;;3.13;2.60;;;;;;;18.59;100.00;100214.22;4996740;28;20050;-78
2022/09/08 08:19:52;;;;;;;3.95;3.00;;;;;;;19.03;99.73;100207.88;4996371;28;20084;-78
2022/09/08 08:22:29;;;;;;;3.92;3.00;;;;;;;19.59;96.88;100206.00;4995270;28;20846;-78
2022/09/08 08:25:05;;;;;;;4.38;2.70;;;;;;;19.89;95.56;100228.00;4999650;28;20054;-78
2022/09/08 08:27:39;;;;;;;5.47;2.95;;;;;;;20.16;93.41;100220.47;4997461;28;20050;-78
2022/09/08 08:30:24;;;;;;;6.63;3.20;;;;;;;20.02;94.60;100221.69;4996428;28;20094;-78
2022/09/08 08:32:58;;;;;;;4.35;2.63;;;;;;;20.43;91.77;100226.16;4994381;28;20129;-78
2022/09/08 08:35:30;;;;;;;6.30;3.03;;;;;;;20.45;89.54;100226.75;4997755;28;20133;-78
2022/09/08 08:37:56;;;;;;;5.10;2.80;;;;;;;19.71;90.10;100222.78;5002406;28;20191;-78
2022/09/08 08:40:30;;;;;;;5.05;2.75;;;;;;;19.97;90.28;100224.22;5002179;28;20089;-77
2022/09/08 08:43:13;;;;;;;5.13;3.13;;;;;;;20.33;89.04;100228.56;5004446;28;20126;-78
2022/09/08 08:45:52;;;;;;;3.72;2.67;;;;;;;21.09;85.87;100222.31;5002592;28;20054;-78
2022/09/08 08:48:41;;;;;;;4.07;2.28;;;;;;;21.16;85.70;100223.81;5002104;28;20138;-78
2022/09/08 08:51:30;;;;;;;2.85;2.50;;;;;;;20.75;85.29;100219.47;5005827;28;20133;-78
2022/09/08 08:54:14;;;;;;;3.10;2.80;;;;;;;20.08;87.55;100213.63;5000824;28;20050;-78
2022/09/08 08:56:47;;;;;;;6.55;3.10;;;;;;;19.76;90.17;100214.94;4976681;28;20085;-78
2022/09/08 08:59:49;;;;;;;4.60;3.00;;;;;;;19.46;90.23;100218.38;4986542;28;20528;-78
2022/09/08 09:02:28;;;;;;;4.22;2.83;;;;;;;19.15;90.86;100227.31;4994826;28;20061;-78
2022/09/08 09:05:27;;;;;;;3.85;2.80;;;;;;;18.80;91.79;100231.59;4995045;28;20050;-77
2022/09/08 09:08:31;;;;;;;3.72;2.50;;;;;;;18.55;91.95;100232.38;4995230;28;20056;-76
2022/09/08 09:11:21;;;;;;;4.97;2.83;;;;;;;18.65;93.20;100223.16;4997248;28;20110;-77
2022/09/08 09:14:20;;;;;;;4.43;2.65;;;;;;;19.10;92.32;100229.03;4990617;28;20041;-77
2022/09/08 09:17:05;;;;;;;5.63;2.70;;;;;;;18.82;90.53;100227.69;5001671;28;20129;-78
2022/09/08 09:20:02;;;;;;;4.13;2.78;;;;;;;18.67;91.59;100232.53;4999095;28;20053;-77
2022/09/08 09:22:39;;;;;;;7.60;3.00;;;;;;;19.10;90.68;100229.03;4982022;28;20050;-77
2022/09/08 09:25:20;;;;;;;5.35;2.70;;;;;;;19.23;89.46;100234.19;4996135;28;20172;-77
2022/09/08 09:27:52;;;;;;;5.80;2.70;;;;;;;19.06;89.98;100227.84;5003877;28;20046;-78
2022/09/08 09:30:24;;;;;;;5.97;2.80;;;;;;;18.82;90.37;100232.19;4990862;28;20085;-78
2022/09/08 09:33:28;;;;;;;4.80;2.75;;;;;;;18.79;90.55;100232.63;4989598;28;20081;-77
2022/09/08 09:36:20;;;;;;;8.75;2.95;;;;;;;19.12;90.29;100233.06;4991775;28;20050;-77
2022/09/08 09:39:14;;;;;;;5.38;2.75;;;;;;;19.50;90.25;100238.09;4993440;28;20070;-77
2022/09/08 09:42:10;;;;;;;8.25;3.05;;;;;;;20.08;88.43;100224.25;4992883;28;20425;-77
2022/09/08 09:45:02;;;;;;;6.05;3.00;;;;;;;20.45;84.14;100226.75;4976591;28;20133;-78
2022/09/08 09:47:50;;;;;;;5.38;2.75;;;;;;;19.93;85.64;100221.22;5000868;28;20417;-78
2022/09/08 09:50:58;;;;;;;6.38;2.83;;;;;;;19.83;83.37;100228.94;4979596;28;20591;-77
2022/09/08 09:53:42;;;;;;;7.15;2.85;;;;;;;19.67;84.06;100217.09;4988853;28;20085;-78
2022/09/08 09:56:37;;;;;;;9.73;2.90;;;;;;;19.87;83.71;100219.47;4989806;28;20142;-77
2022/09/08 09:59:33;;;;;;;5.25;2.83;;;;;;;19.80;82.66;100218.78;4991818;28;20080;-77
2022/09/08 10:02:15;;;;;;;3.90;2.33;;;;;;;19.99;80.76;100212.34;4993292;28;20128;-77
2022/09/08 10:05:17;;;;;;;4.38;2.88;;;;;;;20.23;81.21;100217.72;4993076;28;20129;-77
2022/09/08 10:08:32;;;;;;;5.80;2.90;;;;;;;20.20;80.16;100211.81;4974265;28;20112;-78
2022/09/08 10:11:11;;;;;;;5.00;2.80;;;;;;;20.59;78.57;100216.72;4993190;28;20056;-77
2022/09/08 10:14:02;;;;;;;5.57;3.28;;;;;;;21.06;78.55;100217.47;4992845;28;20481;-78
2022/09/08 10:16:59;;;;;;;4.78;2.70;;;;;;;21.19;77.38;100218.03;4993085;28;20316;-78
2022/09/08 10:20:00;;;;;;;5.18;3.13;;;;;;;21.36;76.61;100220.75;4973127;28;20143;-78
2022/09/08 10:23:12;;;;;;;5.53;2.88;;;;;;;21.78;74.76;100207.16;4957546;28;20081;-78
2022/09/08 10:26:15;;;;;;;6.75;3.17;;;;;;;21.86;74.64;100210.22;4982281;28;20050;-77
2022/09/08 10:28:53;;;;;;;;;;;;;;;21.61;74.52;100211.66;4990380;28;20140;-78
2022/09/08 10:31:47;;;;;;;5.40;3.15;;;;;;;21.38;73.11;100215.19;4993599;28;19996;-79
2022/09/08 10:34:39;;;;;;;5.43;3.25;;;;;;;21.20;73.44;100202.88;4993697;28;20129;-78
2022/09/08 10:37:13;;;;;;;5.68;3.30;;;;;;;21.07;74.37;100213.75;4993325;28;20058;-79
2022/09/08 10:39:47;;;;;;;6.47;3.30;;;;;;;20.89;74.99;100217.38;4993053;28;20133;-77
2022/09/08 10:42:43;;;;;;;5.15;3.42;;;;;;;21.00;73.72;100211.22;4993881;28;20069;-78
2022/09/08 10:45:21;;;;;;;6.18;3.60;;;;;;;21.28;74.06;100202.50;4996310;28;20054;-79
2022/09/08 10:48:26;;;;;;;5.75;3.30;;;;;;;22.31;73.18;100208.56;4994715;28;20200;-76
2022/09/08 10:50:54;;;;;;;6.22;3.35;;;;;;;22.71;69.20;100209.16;4975373;28;20138;-78
2022/09/08 10:53:52;;;;;;;4.53;3.00;;;;;;;22.10;70.77;100208.28;4976699;28;20090;-78
2022/09/08 10:56:27;;;;;;;5.95;2.88;;;;;;;22.14;69.25;100201.41;4984381;28;20092;-79
2022/09/08 10:59:23;;;;;;;5.97;2.80;;;;;;;22.13;71.25;100205.13;4997595;28;20081;-79
2022/09/08 11:02:15;;;;;;;11.30;2.97;;;;;;;22.63;68.63;100206.13;4995187;28;20046;-78
2022/09/08 11:05:15;;;;;;;6.03;2.63;;;;;;;22.75;68.88;100204.16;4995662;28;20080;-78
2022/09/08 11:08:04;;;;;;;4.50;2.75;;;;;;;22.34;68.57;100203.56;4995529;28;20060;-79
2022/09/08 11:10:44;;;;;;;5.70;2.58;;;;;;;22.21;69.19;100198.59;4996186;28;20069;-78
2022/09/08 11:13:26;;;;;;;4.10;2.50;;;;;;;22.52;69.41;100192.66;4994504;28;20136;-78
2022/09/08 11:16:29;;;;;;;3.72;2.42;;;;;;;22.68;68.80;100187.53;4997018;28;20077;-79
2022/09/08 11:19:15;;;;;;;7.35;2.30;;;;;;;22.57;69.53;100175.13;4996603;28;20073;-79
2022/09/08 11:21:50;;;;;;;5.00;2.75;;;;;;;21.85;68.36;100183.84;4997799;28;20078;-79
2022/09/08 11:24:24;;;;;;;3.78;2.30;;;;;;;21.47;69.21;100192.47;4995922;28;20054;-79
2022/09/08 11:26:59;;;;;;;2.58;1.80;;;;;;;21.13;70.13;100196.88;4997250;28;20054;-78
2022/09/08 11:29:32;;;;;;;3.35;1.92;;;;;;;20.95;71.17;100189.03;4996896;28;20066;-78
2022/09/08 11:32:10;;;;;;;8.45;2.47;;;;;;;21.14;72.77;100188.66;4996825;28;20120;-80
2022/09/08 11:34:58;;;;;;;3.33;1.75;;;;;;;21.22;69.89;100184.84;4997649;28;20138;-78
2022/09/08 11:38:04;;;;;;;4.65;2.03;;;;;;;21.10;70.04;100178.72;4996328;28;20072;-78
2022/09/08 11:40:59;;;;;;;1.75;1.20;;;;;;;21.19;69.18;100187.94;5005675;28;20081;-78
2022/09/08 11:43:32;;;;;;;1.70;1.27;;;;;;;21.04;71.06;100180.47;5019668;28;20042;-78
2022/09/08 11:46:12;;;;;;;2.13;1.20;;;;;;;21.15;70.51;100184.94;5007753;28;20065;-80
2022/09/08 11:49:14;;;;;;;3.38;1.48;;;;;;;21.84;68.45;100182.22;5000985;28;20108;-80
2022/09/08 11:52:01;;;;;;;5.00;1.17;;;;;;;21.92;66.64;100160.50;4939751;29;20180;-79
2022/09/08 11:54:48;;;;;;;4.10;1.50;;;;;;;22.45;65.39;100183.22;5001573;28;20046;-79
2022/09/08 11:57:31;;;;;;;3.88;1.65;;;;;;;22.74;64.70;100182.00;5001115;28;20061;-79
2022/09/08 12:00:16;;;;;;;4.18;1.80;;;;;;;22.35;64.51;100177.72;5000336;28;20091;-79
2022/09/08 12:03:22;;;;;;;7.35;2.30;;;;;;;21.77;63.75;100165.59;4998922;28;20132;-81
2022/09/08 12:06:31;;;;;;;4.43;1.95;;;;;;;21.65;65.27;100167.53;5001491;28;20445;-79
2022/09/08 12:09:21;;;;;;;3.40;1.25;;;;;;;22.20;64.33;100164.19;4989171;28;20092;-80
2022/09/08 12:12:05;;;;;;;5.80;2.03;;;;;;;22.42;63.64;100163.19;5003186;28;20106;-79
2022/09/08 12:14:42;;;;;;;3.75;1.77;;;;;;;22.49;62.20;100163.00;4997878;28;20050;-79
2022/09/08 12:17:19;;;;;;;2.55;1.33;;;;;;;22.30;61.67;100159.78;4998254;28;20050;-78